LPLA METAR and TAF weather

Enter ICAO airport designator
Station Type Date Time Source
LPLA METAR 2019/10/18 11:00 UTC NOAA

LPLA 181100Z /////KT 9999 FEW025 24/17 Q1019


Station Type Date Time Source
LPLA Decoded METAR 2019/10/18 11:00 UTC NOAA

Lajes Acores , Portugal (LPLA) 38-46N 027-06W 54M
Oct 18, 2019 - 07:00 AM EDT / 2019.10.18 1100 UTC
Visibility: greater than 7 mile(s):0
Sky conditions: mostly clear
Temperature: 75 F (24 C)
Dew Point: 62 F (17 C)
Relative Humidity: 64%
Pressure (altimeter): 30.09 in. Hg (1019 hPa)
ob: LPLA 181100Z /////KT 9999 FEW025 24/17 Q1019
cycle: 11

Station Type Date Time Source
LPLA TAF 2019/10/18 06:18 UTC NOAA

TAF LPLA 180509Z 1806/1906 22012KT FEW007 SCT014 PROB40
TEMPO 1807/1815 22015G25KT 7000 -RA SCT007 BKN014
BECMG 1814/1816 36012KT
TEMPO 1815/1818 3000 RADZ BR SCT007 BKN014
TEMPO 1818/1906 36012G22KT 7000 -RADZ SCT005 BKN008

Example: see airport list